»·PEaware :: SAS295 KDEN-KDEN

SAS295 :: KDEN-KDEN

FLIGHT INFORMATION

Flight Status: Arrived
Operator:
SAS
More flights by this operator :: More flights under this callsign
Pilot: Karl K. (18126)
Aircraft: BOEING 737-800
(B738)
More flights by this aircraft type
Origin: KDEN Denver Intl
United States
Destination: KDEN Denver Intl
United States
More flights between these airports :: More routes between these airports
Route: +DEN9
File this flight plan on PilotEdge
Remarks:
Altitude:
(Current/Filed)
10,000ft
Speed:
(Current/Filed)
0kts
Departed: 04-Feb-18 10:46 AM
Arrived: 04-Feb-18 11:13 AM
Distance/Time
Traveled:
0nm/0:27
Distance/Time
To Go:
Arrived

Flight Plot

Page will automatically refresh every two minutes.

Flight plan parsing failed; only flown route is shown


Map Options




Map Legend


Flown Route
Filed Route
Departure Airport
Arrival Airport
Navaid (VOR, NDB)
Fix

Horizontal Profiles

Position Reports

Time Latitude Longitude Heading Altitude Ground
Speed
04-Feb-18 10:36 39.862546 -104.676227 0 5439ft 0kts
04-Feb-18 10:37 39.862546 -104.676227 0 5439ft 0kts
04-Feb-18 10:38 39.862546 -104.676227 0 5439ft 0kts
04-Feb-18 10:39 39.862546 -104.676227 0 5439ft 0kts
04-Feb-18 10:40 39.862546 -104.676227 0 5439ft 0kts
04-Feb-18 10:41 39.862546 -104.676227 0 5439ft 0kts
04-Feb-18 10:42 39.862546 -104.676227 0 5439ft 0kts
04-Feb-18 10:43 39.862305 -104.676200 343 5439ft 2kts
04-Feb-18 10:44 39.861836 -104.675471 278 5439ft 0kts
04-Feb-18 10:45 39.861450 -104.676501 236 5439ft 7kts
04-Feb-18 10:46 39.861349 -104.679846 271 5439ft 11kts
04-Feb-18 10:47 39.861068 -104.683831 188 5439ft 8kts
04-Feb-18 10:48 39.857068 -104.683918 180 5439ft 13kts
04-Feb-18 10:49 39.851057 -104.684038 181 5439ft 23kts
04-Feb-18 10:50 39.843095 -104.684198 180 5440ft 27kts
04-Feb-18 10:51 39.840725 -104.684400 239 5439ft 9kts
04-Feb-18 10:52 39.840832 -104.708388 271 5485ft 167kts
04-Feb-18 10:53 39.866564 -104.755212 347 7983ft 190kts
04-Feb-18 10:54 39.927307 -104.774598 346 9935ft 239kts
04-Feb-18 10:55 39.999028 -104.782197 348 10047ft 266kts
04-Feb-18 10:56 40.072429 -104.790501 349 8388ft 265kts
04-Feb-18 10:57 40.140216 -104.773077 53 8061ft 281kts
04-Feb-18 10:58 40.121029 -104.682079 145 8045ft 290kts
04-Feb-18 10:59 40.051110 -104.686796 176 7716ft 239kts
04-Feb-18 11:00 39.990840 -104.685878 183 7248ft 200kts
04-Feb-18 11:01 39.936702 -104.686446 179 6211ft 185kts
04-Feb-18 11:02 39.889945 -104.686961 177 5440ft 141kts
04-Feb-18 11:03 39.837912 -104.691036 198 6952ft 230kts
04-Feb-18 11:04 39.813355 -104.773887 269 9519ft 283kts
04-Feb-18 11:05 39.805302 -104.870249 271 10006ft 250kts
04-Feb-18 11:06 39.848923 -104.928352 328 10011ft 254kts
04-Feb-18 11:07 39.920906 -104.934291 358 9992ft 262kts
04-Feb-18 11:08 39.993832 -104.923509 359 9788ft 268kts
04-Feb-18 11:09 40.069016 -104.914130 358 8959ft 272kts
04-Feb-18 11:10 40.144824 -104.907388 358 8279ft 266kts
04-Feb-18 11:11 40.202532 -104.869219 77 8059ft 265kts
04-Feb-18 11:12 40.170124 -104.785691 128 7743ft 268kts
04-Feb-18 11:13 40.125682 -104.713783 127 7050ft 244kts
04-Feb-18 11:14 40.071355 -104.683994 188 6909ft 204kts
04-Feb-18 11:15 40.016560 -104.685214 182 6972ft 193kts
04-Feb-18 11:16 39.963695 -104.686190 179 6728ft 186kts
04-Feb-18 11:17 39.914827 -104.686768 177 5815ft 161kts
04-Feb-18 11:18 39.880889 -104.687036 180 5440ft 44kts
04-Feb-18 11:19 39.876372 -104.685692 148 5439ft 0kts
04-Feb-18 11:21 39.875485 -104.685048 158 5439ft 13kts
04-Feb-18 11:22 39.869530 -104.684992 180 5439ft 23kts
04-Feb-18 11:23 39.864327 -104.684182 102 5439ft 10kts
04-Feb-18 11:24 39.861400 -104.682628 90 5439ft 15kts
04-Feb-18 11:25 39.861492 -104.676300 29 5439ft 8kts
04-Feb-18 11:26 39.862458 -104.676229 0 5439ft 0kts
04-Feb-18 11:27 39.862458 -104.676229 0 5439ft 0kts
04-Feb-18 11:28 39.862458 -104.676229 0 5439ft 0kts
04-Feb-18 11:29 39.862458 -104.676229 0 5439ft 0kts
04-Feb-18 11:30 39.862458 -104.676229 0 5439ft 0kts
04-Feb-18 11:31 39.862458 -104.676229 0 5439ft 0kts
04-Feb-18 11:32 39.862458 -104.676229 0 5439ft 0kts
04-Feb-18 11:33 39.862458 -104.676229 0 5439ft 0kts
04-Feb-18 11:34 39.862458 -104.676229 0 5439ft 0kts
04-Feb-18 11:35 39.862458 -104.676229 0 5439ft 0kts

Navigation Log

Ident Type
Flight plan parsing failed, navigation log unavailable